Time;durP1;ratioP1;P1;durP2;ratioP2;P2;SDS_P1;SDS_P2;PMS_P1;PMS_P2;Temp;Humidity;BMP_temperature;BMP_pressure;BME280_temperature;BME280_humidity;BME280_pressure;Samples;Min_cycle;Max_cycle;Signal;HPM_P1;HPM_P2
2021/10/15 00:02:12;;;;;;;9.05;3.95;;;;;;;9.73;88.17;100434.19;5036945;28;20096;-73
2021/10/15 00:04:39;;;;;;;6.38;3.55;;;;;;;9.65;88.35;100423.94;5036998;28;20124;-72
2021/10/15 00:07:06;;;;;;;10.55;3.67;;;;;;;9.70;88.45;100430.84;5034809;28;20084;-72
2021/10/15 00:09:33;;;;;;;8.82;3.95;;;;;;;9.74;88.26;100432.38;5015055;28;20045;-70
2021/10/15 00:12:00;;;;;;;11.65;4.20;;;;;;;9.73;88.17;100428.00;5016636;28;20560;-74
2021/10/15 00:14:27;;;;;;;11.23;4.30;;;;;;;9.77;88.29;100418.91;5016648;28;20117;-73
2021/10/15 00:16:54;;;;;;;10.88;4.15;;;;;;;9.70;88.64;100417.50;5015471;28;20041;-72
2021/10/15 00:19:21;;;;;;;10.43;3.92;;;;;;;9.68;89.00;100414.03;5015474;28;20046;-71
2021/10/15 00:21:48;;;;;;;10.95;4.30;;;;;;;9.71;88.85;100416.56;5016791;28;20053;-73
2021/10/15 00:24:15;;;;;;;10.13;4.07;;;;;;;9.68;88.79;100411.38;5020610;28;20070;-74
2021/10/15 00:26:46;;;;;;;12.43;3.92;;;;;;;9.70;89.16;100412.19;5036456;28;20061;-73
2021/10/15 00:29:13;;;;;;;14.98;3.85;;;;;;;9.60;89.24;100415.31;5035550;28;20076;-73
2021/10/15 00:31:40;;;;;;;13.98;4.75;;;;;;;9.64;89.45;100416.88;5036258;28;20516;-71
2021/10/15 00:34:07;;;;;;;8.23;3.83;;;;;;;9.58;89.62;100417.22;5036348;28;20411;-70
2021/10/15 00:36:34;;;;;;;8.85;4.30;;;;;;;9.56;89.34;100405.78;5035119;28;20385;-72
2021/10/15 00:39:01;;;;;;;15.85;4.35;;;;;;;9.57;89.40;100410.16;5036273;28;20041;-71
2021/10/15 00:41:28;;;;;;;9.10;4.25;;;;;;;9.60;89.09;100404.66;5018756;28;20045;-71
2021/10/15 00:44:01;;;;;;;8.93;4.10;;;;;;;9.62;88.96;100404.59;5018729;28;20443;-74
2021/10/15 00:46:28;;;;;;;10.93;4.10;;;;;;;9.61;88.83;100395.75;5017669;28;20045;-74
2021/10/15 00:48:56;;;;;;;13.07;4.63;;;;;;;9.63;88.83;100385.84;5036107;28;20038;-72
2021/10/15 00:51:23;;;;;;;6.80;3.42;;;;;;;9.64;88.71;100384.03;5036202;28;20056;-73
2021/10/15 00:53:51;;;;;;;10.20;3.65;;;;;;;9.63;88.64;100387.66;5035973;28;20038;-73
2021/10/15 00:56:17;;;;;;;9.40;3.70;;;;;;;9.61;88.55;100379.75;5036048;28;20052;-73
2021/10/15 00:58:44;;;;;;;15.20;3.40;;;;;;;9.49;88.65;100359.09;5034782;28;20053;-73
2021/10/15 01:01:11;;;;;;;9.43;3.88;;;;;;;9.62;88.39;100377.94;5034626;28;20056;-72
2021/10/15 01:03:39;;;;;;;7.15;4.03;;;;;;;9.60;88.81;100375.34;5035842;28;20057;-73
2021/10/15 01:06:06;;;;;;;7.28;3.78;;;;;;;9.56;87.97;100371.16;5034897;28;20041;-71
2021/10/15 01:08:41;;;;;;;10.45;4.40;;;;;;;9.57;88.74;100361.31;5020908;28;20466;-73
2021/10/15 01:11:08;;;;;;;8.07;3.70;;;;;;;9.54;88.41;100373.03;5016078;28;20465;-73
2021/10/15 01:13:37;;;;;;;9.20;3.78;;;;;;;9.44;88.74;100363.78;5014480;28;20096;-72
2021/10/15 01:16:09;;;;;;;9.27;4.00;;;;;;;9.42;88.79;100355.88;5014749;28;20038;-74
2021/10/15 01:18:38;;;;;;;13.43;4.03;;;;;;;9.47;88.69;100356.50;5015718;28;20145;-72
2021/10/15 01:21:09;;;;;;;9.15;3.53;;;;;;;9.44;88.61;100355.81;5014581;28;20394;-75
2021/10/15 01:23:38;;;;;;;6.30;3.80;;;;;;;9.42;88.59;100339.06;5014701;28;20053;-74
2021/10/15 01:26:07;;;;;;;10.52;4.18;;;;;;;9.47;88.32;100344.97;5034245;28;20435;-74
2021/10/15 01:28:34;;;;;;;8.80;3.83;;;;;;;9.38;88.88;100341.03;5034347;28;20045;-72
2021/10/15 01:31:02;;;;;;;10.88;4.10;;;;;;;9.46;88.95;100337.94;5034319;28;20045;-73
2021/10/15 01:33:28;;;;;;;8.68;4.30;;;;;;;9.44;88.67;100334.50;5034092;28;20095;-74
2021/10/15 01:35:55;;;;;;;15.23;6.10;;;;;;;9.40;88.86;100322.25;5034961;28;20095;-72
2021/10/15 01:38:22;;;;;;;8.10;3.92;;;;;;;9.38;88.90;100325.88;5035128;28;20041;-74
2021/10/15 01:40:49;;;;;;;11.45;4.22;;;;;;;9.40;88.39;100315.16;5035171;28;20084;-70
2021/10/15 01:43:25;;;;;;;12.15;4.28;;;;;;;9.40;88.88;100323.13;5035116;28;20041;-73
2021/10/15 01:45:52;;;;;;;11.77;4.32;;;;;;;9.40;88.95;100311.59;5034226;28;20064;-71
2021/10/15 01:48:19;;;;;;;7.95;3.55;;;;;;;9.32;89.21;100310.22;5034283;28;20331;-74
2021/10/15 01:50:46;;;;;;;9.95;4.05;;;;;;;9.32;88.99;100304.91;5035242;28;20042;-72
2021/10/15 01:53:14;;;;;;;7.55;3.97;;;;;;;9.38;88.65;100293.91;5034962;28;20095;-73
2021/10/15 01:55:41;;;;;;;11.15;4.47;;;;;;;9.30;89.13;100296.13;5035198;28;20053;-71
2021/10/15 01:58:08;;;;;;;9.70;4.35;;;;;;;9.30;88.85;100301.47;5035257;28;20165;-73
2021/10/15 02:00:35;;;;;;;8.77;3.63;;;;;;;9.31;89.37;100299.66;5035515;28;20405;-72
2021/10/15 02:03:04;;;;;;;9.90;4.00;;;;;;;9.28;88.92;100294.50;5035437;28;20133;-72
2021/10/15 02:05:31;;;;;;;8.90;4.43;;;;;;;9.29;89.16;100297.09;5035442;28;20049;-75
2021/10/15 02:07:58;;;;;;;17.77;4.30;;;;;;;9.29;89.78;100296.22;5026211;28;20050;-72
2021/10/15 02:10:24;;;;;;;8.45;4.20;;;;;;;9.29;89.65;100299.75;5014320;28;20065;-72
2021/10/15 02:12:51;;;;;;;11.98;4.70;;;;;;;9.27;88.77;100293.66;5020487;28;20046;-72
2021/10/15 02:15:22;;;;;;;12.85;5.10;;;;;;;9.26;89.24;100285.72;5027170;28;20040;-71
2021/10/15 02:18:08;;;;;;;11.70;4.32;;;;;;;9.16;88.79;100278.22;5015676;28;20049;-71
2021/10/15 02:20:35;;;;;;;12.90;4.78;;;;;;;9.21;88.97;100275.34;5015416;28;20046;-73
2021/10/15 02:23:02;;;;;;;8.35;3.47;;;;;;;9.22;88.91;100282.38;5014061;28;20050;-74
2021/10/15 02:25:29;;;;;;;10.45;4.28;;;;;;;9.19;89.33;100270.09;5029124;28;20045;-73
2021/10/15 02:27:56;;;;;;;12.70;5.40;;;;;;;9.17;89.32;100271.09;5034832;28;20049;-73
2021/10/15 02:30:23;;;;;;;11.10;4.50;;;;;;;9.15;89.69;100268.50;5034892;28;20038;-73
2021/10/15 02:32:50;;;;;;;12.82;4.57;;;;;;;9.16;89.66;100261.41;5036711;28;20060;-72
2021/10/15 02:35:17;;;;;;;10.25;4.50;;;;;;;9.13;89.71;100261.53;5038581;28;20046;-71
2021/10/15 02:37:44;;;;;;;14.10;4.45;;;;;;;9.13;89.33;100257.09;5038886;28;20292;-74
2021/10/15 02:40:12;;;;;;;14.93;4.65;;;;;;;9.00;89.78;100248.91;5038563;28;20041;-73
2021/10/15 02:42:40;;;;;;;11.07;4.68;;;;;;;9.10;89.84;100251.94;5037647;28;20076;-72
2021/10/15 02:45:08;;;;;;;10.02;4.15;;;;;;;9.09;89.30;100237.75;5038277;28;20045;-72
2021/10/15 02:47:35;;;;;;;10.55;4.10;;;;;;;9.12;89.24;100247.38;5038401;28;20053;-74
2021/10/15 02:50:02;;;;;;;8.00;4.45;;;;;;;9.14;89.72;100250.81;5038208;28;20197;-73
2021/10/15 02:52:29;;;;;;;10.82;4.30;;;;;;;9.17;88.79;100237.34;5038283;28;20045;-75
2021/10/15 02:54:56;;;;;;;12.18;4.75;;;;;;;9.16;89.76;100232.09;5036949;28;20091;-72
2021/10/15 02:57:23;;;;;;;12.95;4.15;;;;;;;9.16;89.31;100235.59;5038148;28;20067;-72
2021/10/15 02:59:49;;;;;;;6.65;3.80;;;;;;;9.17;89.32;100241.81;5038023;28;20099;-74
2021/10/15 03:02:18;;;;;;;12.23;5.43;;;;;;;9.17;88.90;100233.81;5038310;28;20057;-74
2021/10/15 03:04:46;;;;;;;10.07;4.15;;;;;;;9.26;88.23;100230.66;5036927;28;20644;-74
2021/10/15 03:07:13;;;;;;;12.48;4.20;;;;;;;9.32;87.79;100235.63;5033953;28;20104;-73
2021/10/15 03:09:39;;;;;;;9.10;4.10;;;;;;;9.38;87.97;100224.66;5018146;28;20050;-74
2021/10/15 03:12:07;;;;;;;13.13;4.68;;;;;;;9.39;88.20;100230.84;5017962;28;20447;-72
2021/10/15 03:14:35;;;;;;;11.65;4.40;;;;;;;9.43;87.49;100211.06;5017945;28;20084;-72
2021/10/15 03:17:02;;;;;;;10.80;4.22;;;;;;;9.53;87.44;100219.41;5018044;28;20427;-74
2021/10/15 03:19:29;;;;;;;8.00;4.28;;;;;;;9.52;87.39;100217.69;5017894;28;20061;-74
2021/10/15 03:21:56;;;;;;;11.65;4.22;;;;;;;9.55;87.19;100211.34;5017993;28;20046;-71
2021/10/15 03:24:23;;;;;;;10.48;4.10;;;;;;;9.58;86.71;100216.53;5022625;28;20124;-72
2021/10/15 03:26:49;;;;;;;11.55;4.57;;;;;;;9.57;87.57;100212.97;5037617;28;20087;-74
2021/10/15 03:29:16;;;;;;;7.03;4.13;;;;;;;9.67;86.11;100215.13;5036626;28;20056;-74
2021/10/15 03:31:43;;;;;;;10.80;3.83;;;;;;;9.73;86.36;100204.09;5036466;28;20046;-71
2021/10/15 03:34:10;;;;;;;7.60;4.50;;;;;;;9.80;86.54;100208.13;5037383;28;20049;-72
2021/10/15 03:36:36;;;;;;;9.52;3.88;;;;;;;9.80;85.29;100204.63;5019939;28;20350;-73
2021/10/15 03:39:03;;;;;;;11.38;4.10;;;;;;;9.79;85.66;100206.44;5037408;28;20510;-73
2021/10/15 03:41:30;;;;;;;10.82;4.00;;;;;;;9.81;85.27;100198.34;5037475;28;20053;-72
2021/10/15 03:43:57;;;;;;;12.02;4.20;;;;;;;9.87;85.41;100204.19;5034947;28;20378;-74
2021/10/15 03:46:24;;;;;;;15.25;4.32;;;;;;;9.88;85.78;100207.72;5037287;28;20067;-74
2021/10/15 03:48:51;;;;;;;11.80;4.53;;;;;;;9.85;85.77;100203.41;5037192;28;20045;-74
2021/10/15 03:51:17;;;;;;;10.90;3.88;;;;;;;9.95;85.71;100210.88;5036142;28;20465;-74
2021/10/15 03:53:44;;;;;;;12.00;4.60;;;;;;;10.00;85.35;100203.47;5010947;28;20054;-74
2021/10/15 03:56:11;;;;;;;9.45;3.88;;;;;;;9.96;84.95;100209.94;5016214;28;20049;-73
2021/10/15 03:58:38;;;;;;;9.43;4.32;;;;;;;9.99;84.94;100209.75;5017282;28;20045;-72
2021/10/15 04:01:05;;;;;;;9.77;4.00;;;;;;;10.00;85.30;100199.00;5016174;28;20050;-71
2021/10/15 04:03:31;;;;;;;11.02;4.07;;;;;;;10.03;84.87;100197.97;5017139;28;20076;-72
2021/10/15 04:05:58;;;;;;;7.07;3.90;;;;;;;10.01;85.06;100210.53;5016973;28;20483;-73
2021/10/15 04:08:25;;;;;;;7.32;3.70;;;;;;;10.00;85.05;100204.34;5017005;28;20050;-73
2021/10/15 04:10:52;;;;;;;15.27;4.10;;;;;;;10.03;84.82;100198.81;5015688;28;20058;-70
2021/10/15 04:13:19;;;;;;;9.80;4.60;;;;;;;10.04;84.73;100200.53;5016923;28;20053;-72
2021/10/15 04:15:46;;;;;;;13.50;4.35;;;;;;;10.05;84.60;100202.28;5017025;28;20049;-71
2021/10/15 04:18:12;;;;;;;8.85;3.65;;;;;;;10.04;84.99;100199.69;5016961;28;20055;-72
2021/10/15 04:20:40;;;;;;;10.30;3.60;;;;;;;10.01;85.14;100191.84;5016828;28;20168;-74
2021/10/15 04:23:07;;;;;;;9.60;3.92;;;;;;;10.04;85.22;100189.03;5016761;28;20053;-74
2021/10/15 04:25:33;;;;;;;13.80;4.10;;;;;;;10.02;84.89;100164.28;5016531;28;20054;-73
2021/10/15 04:28:00;;;;;;;13.13;3.70;;;;;;;10.02;85.80;100183.78;5016807;28;20045;-73
2021/10/15 04:30:27;;;;;;;10.25;3.95;;;;;;;10.03;85.31;100185.50;5012438;28;20100;-72
2021/10/15 04:32:54;;;;;;;10.43;4.03;;;;;;;10.04;85.18;100173.88;5016496;28;20049;-74
2021/10/15 04:35:21;;;;;;;8.70;3.97;;;;;;;10.00;85.28;100175.00;5015313;28;20355;-72
2021/10/15 04:37:48;;;;;;;11.65;4.18;;;;;;;9.94;85.36;100155.84;5016128;28;20054;-72
2021/10/15 04:40:15;;;;;;;12.15;4.32;;;;;;;9.99;85.15;100159.09;5017788;28;20073;-73
2021/10/15 04:42:41;;;;;;;13.95;4.13;;;;;;;9.92;86.02;100167.44;5016791;28;20050;-73
2021/10/15 04:45:09;;;;;;;10.02;4.05;;;;;;;9.94;86.01;100164.69;5014571;28;20073;-73
2021/10/15 04:47:36;;;;;;;12.38;4.40;;;;;;;9.96;85.98;100164.63;5001078;28;20050;-72
2021/10/15 04:50:05;;;;;;;9.20;4.22;;;;;;;9.95;86.31;100157.53;4997060;28;20121;-73
2021/10/15 04:52:32;;;;;;;8.77;3.75;;;;;;;9.95;85.73;100162.88;4996924;28;20372;-73
2021/10/15 04:54:58;;;;;;;12.43;3.72;;;;;;;9.97;85.75;100159.19;4996366;28;20066;-72
2021/10/15 04:57:26;;;;;;;6.45;3.70;;;;;;;9.97;85.96;100164.50;4995554;28;20049;-75
2021/10/15 04:59:52;;;;;;;9.25;5.63;;;;;;;10.00;85.53;100167.00;4995717;28;20050;-75
2021/10/15 05:02:20;;;;;;;12.63;3.92;;;;;;;9.97;85.95;100159.19;5013733;28;20049;-72
2021/10/15 05:04:47;;;;;;;9.15;4.32;;;;;;;9.95;86.12;100157.53;5015974;28;20050;-73
2021/10/15 05:07:14;;;;;;;11.52;3.80;;;;;;;9.94;85.89;100155.84;5016385;28;20088;-71
2021/10/15 05:09:42;;;;;;;9.85;3.78;;;;;;;9.94;85.82;100147.84;5015198;28;20048;-73
2021/10/15 05:12:15;;;;;;;12.63;3.88;;;;;;;9.91;85.73;100141.75;5015896;28;20091;-71
2021/10/15 05:14:43;;;;;;;7.75;3.88;;;;;;;10.01;85.64;100147.41;5016033;28;20042;-73
2021/10/15 05:17:10;;;;;;;9.82;4.07;;;;;;;9.98;85.07;100141.38;5015735;28;20423;-75
2021/10/15 05:19:39;;;;;;;8.43;3.80;;;;;;;10.03;85.19;100144.66;5014658;28;20081;-73
2021/10/15 05:22:06;;;;;;;8.52;4.25;;;;;;;10.00;85.84;100139.47;5015760;28;20042;-72
2021/10/15 05:24:33;;;;;;;12.30;4.07;;;;;;;10.02;85.78;100140.28;5021052;28;20038;-73
2021/10/15 05:26:59;;;;;;;7.80;3.65;;;;;;;10.05;85.81;100137.41;5035523;28;20045;-70
2021/10/15 05:29:26;;;;;;;9.20;4.07;;;;;;;10.05;86.01;100138.28;5035490;28;20057;-70
2021/10/15 05:31:53;;;;;;;8.88;4.53;;;;;;;10.07;85.51;100143.50;4998628;28;20050;-73
2021/10/15 05:34:20;;;;;;;12.60;4.15;;;;;;;10.07;85.43;100148.84;4994738;28;20049;-73
2021/10/15 05:36:47;;;;;;;11.63;3.97;;;;;;;10.04;85.40;100146.34;5011202;28;20070;-71
2021/10/15 05:39:14;;;;;;;12.15;4.93;;;;;;;10.02;85.79;100142.94;4994757;28;20156;-74
2021/10/15 05:41:40;;;;;;;12.75;3.92;;;;;;;10.01;85.98;100142.06;4994822;28;20050;-74
2021/10/15 05:44:08;;;;;;;10.82;3.67;;;;;;;10.05;85.58;100130.28;5000318;28;20054;-72
2021/10/15 05:46:35;;;;;;;5.38;3.90;;;;;;;10.05;85.01;100142.75;5041455;28;20060;-73
2021/10/15 05:49:06;;;;;;;15.77;4.07;;;;;;;10.02;85.66;100129.59;5007687;28;20380;-73
2021/10/15 05:51:37;;;;;;;11.95;3.42;;;;;;;10.05;86.00;100138.28;5014050;28;20056;-75
2021/10/15 05:54:05;;;;;;;14.43;4.57;;;;;;;10.11;85.55;100141.50;4998579;28;20062;-73
2021/10/15 05:56:42;;;;;;;11.15;4.22;;;;;;;10.11;85.68;100142.38;4978698;28;20050;-75
2021/10/15 05:59:09;;;;;;;14.20;3.92;;;;;;;10.06;85.91;100139.13;5001883;28;20046;-75
2021/10/15 06:01:36;;;;;;;10.98;3.95;;;;;;;10.05;85.97;100132.94;5013833;28;20050;-76
2021/10/15 06:14:33;;;;;;;10.75;4.10;;;;;;;10.12;85.89;100149.44;5039255;28;20095;-74
2021/10/15 06:17:08;;;;;;;11.18;4.78;;;;;;;10.07;86.45;100148.84;5048594;28;20043;-75
2021/10/15 06:19:44;;;;;;;10.23;3.72;;;;;;;10.08;86.58;100147.03;5050283;28;20056;-73
2021/10/15 06:22:11;;;;;;;9.60;4.47;;;;;;;10.09;86.88;100144.28;5033827;28;20092;-71
2021/10/15 06:24:38;;;;;;;8.73;4.50;;;;;;;10.08;87.06;100153.22;5038352;28;20037;-71
2021/10/15 06:27:05;;;;;;;10.15;3.75;;;;;;;10.10;87.25;100154.00;5035863;28;20049;-74
2021/10/15 06:29:31;;;;;;;13.68;4.10;;;;;;;10.17;86.91;100150.00;5015262;28;20049;-74
2021/10/15 06:31:58;;;;;;;8.45;4.65;;;;;;;10.18;86.33;100153.53;5036557;28;20045;-71
2021/10/15 06:34:25;;;;;;;10.07;3.85;;;;;;;10.18;86.80;100157.06;5035869;28;20041;-70
2021/10/15 06:36:52;;;;;;;8.35;4.72;;;;;;;10.16;86.85;100156.31;5035360;28;20434;-70
2021/10/15 06:39:19;;;;;;;9.45;4.45;;;;;;;10.21;86.86;100163.16;5018044;28;20049;-70
2021/10/15 06:41:45;;;;;;;10.00;4.15;;;;;;;10.25;86.82;100167.38;5028982;28;20050;-73
2021/10/15 06:44:14;;;;;;;11.68;4.30;;;;;;;10.23;87.06;100171.94;5035372;28;20053;-74
2021/10/15 06:46:41;;;;;;;10.60;4.47;;;;;;;10.24;87.31;100168.31;5035423;28;20079;-73
2021/10/15 06:49:09;;;;;;;12.05;5.30;;;;;;;10.28;87.42;100170.72;5034074;28;20045;-70
2021/10/15 06:51:39;;;;;;;9.80;4.57;;;;;;;10.29;87.85;100171.56;5034378;28;20064;-71
2021/10/15 06:54:05;;;;;;;12.18;4.93;;;;;;;10.26;88.22;100169.09;5035316;28;20045;-71
2021/10/15 06:56:32;;;;;;;11.65;4.90;;;;;;;10.29;88.46;100171.56;5034319;28;20047;-73
2021/10/15 06:58:59;;;;;;;12.02;4.45;;;;;;;10.32;88.84;100182.06;5035691;28;20045;-71
2021/10/15 07:01:26;;;;;;;12.75;5.35;;;;;;;10.35;88.54;100176.53;5048177;28;20045;-69
2021/10/15 07:03:53;;;;;;;9.43;4.82;;;;;;;10.32;88.92;100168.72;5040961;28;20045;-72
2021/10/15 07:06:20;;;;;;;9.50;4.82;;;;;;;10.40;88.65;100176.28;5036222;28;20037;-74
2021/10/15 07:08:47;;;;;;;9.27;4.60;;;;;;;10.45;88.66;100166.19;5020025;28;20454;-72
2021/10/15 07:11:14;;;;;;;11.23;4.43;;;;;;;10.48;89.29;100171.34;5014727;28;20076;-73
2021/10/15 07:13:41;;;;;;;17.30;5.47;;;;;;;10.53;88.69;100174.63;5015710;28;20046;-73
2021/10/15 07:16:10;;;;;;;9.15;4.53;;;;;;;10.61;88.18;100176.78;5024511;28;20056;-74
2021/10/15 07:18:38;;;;;;;8.55;4.75;;;;;;;10.56;88.82;100173.53;5004167;28;20064;-71
2021/10/15 07:21:06;;;;;;;14.15;5.28;;;;;;;10.58;88.75;100172.50;5037822;28;20060;-74
2021/10/15 07:23:33;;;;;;;9.77;4.93;;;;;;;10.57;88.63;100181.47;5036588;28;20419;-71
2021/10/15 07:26:02;;;;;;;10.73;5.30;;;;;;;10.51;89.49;100171.16;5036619;28;20037;-72
2021/10/15 07:28:29;;;;;;;12.77;5.43;;;;;;;10.53;89.05;100166.59;5037357;28;20345;-71
2021/10/15 07:30:58;;;;;;;10.15;5.10;;;;;;;10.51;89.41;100175.66;5033423;28;20033;-71
2021/10/15 07:33:25;;;;;;;13.98;5.18;;;;;;;10.52;89.58;100166.69;5032255;28;20081;-71
2021/10/15 07:35:53;;;;;;;11.70;4.95;;;;;;;10.49;89.39;100162.41;5023799;28;20125;-73
2021/10/15 07:38:20;;;;;;;17.02;5.35;;;;;;;10.57;89.46;100172.63;5028379;28;20052;-72
2021/10/15 07:40:47;;;;;;;17.30;6.13;;;;;;;10.58;89.47;100172.50;5036246;28;20038;-72
2021/10/15 07:43:14;;;;;;;15.93;5.32;;;;;;;10.57;89.44;100176.13;5027638;28;20045;-71
2021/10/15 07:45:41;;;;;;;10.80;5.07;;;;;;;10.58;89.40;100179.66;5028898;28;20092;-73
2021/10/15 07:48:08;;;;;;;9.10;5.90;;;;;;;10.53;89.41;100177.28;5027409;28;20060;-73
2021/10/15 07:50:35;;;;;;;13.43;4.93;;;;;;;10.58;89.73;100188.50;5025938;28;20101;-70
2021/10/15 07:53:02;;;;;;;11.68;6.28;;;;;;;10.64;89.46;100173.97;5035931;28;20355;-74
2021/10/15 07:55:29;;;;;;;12.15;5.38;;;;;;;10.69;89.87;100181.69;5035924;28;20056;-73
2021/10/15 07:57:56;;;;;;;11.32;5.25;;;;;;;10.75;89.93;100178.63;5036135;28;20050;-70
2021/10/15 08:00:22;;;;;;;9.20;4.93;;;;;;;10.85;89.79;100184.25;5022292;28;20046;-72
2021/10/15 08:02:50;;;;;;;10.18;5.38;;;;;;;10.88;89.94;100181.38;5027028;28;20367;-73
2021/10/15 08:05:18;;;;;;;13.57;5.35;;;;;;;10.89;90.45;100180.44;5034012;28;20077;-72
2021/10/15 08:07:45;;;;;;;17.67;5.60;;;;;;;10.97;90.29;100186.19;5033551;28;20045;-72
2021/10/15 08:10:12;;;;;;;14.38;5.97;;;;;;;10.95;90.76;100173.88;5035248;28;20041;-69
2021/10/15 08:12:39;;;;;;;9.52;5.75;;;;;;;11.00;91.31;100169.94;5035268;28;20060;-72
2021/10/15 08:15:09;;;;;;;15.68;5.55;;;;;;;10.98;91.41;100157.63;5036699;28;20099;-70
2021/10/15 08:17:41;;;;;;;8.98;5.50;;;;;;;11.02;91.47;100150.28;5037149;28;20331;-72
2021/10/15 08:20:09;;;;;;;12.38;6.03;;;;;;;11.09;91.51;100162.31;5036504;28;20045;-70
2021/10/15 08:22:36;;;;;;;14.43;5.88;;;;;;;11.05;91.40;100177.66;5035449;28;20049;-72
2021/10/15 08:25:23;;;;;;;12.18;5.82;;;;;;;11.17;91.70;100191.22;5034056;28;20053;-72
2021/10/15 08:27:50;;;;;;;17.38;5.75;;;;;;;11.22;91.42;100189.94;5033595;28;20148;-73
2021/10/15 08:30:17;;;;;;;16.55;6.63;;;;;;;11.31;91.24;100182.31;5034023;28;20045;-72
2021/10/15 08:32:44;;;;;;;13.10;6.05;;;;;;;11.33;91.22;100196.44;5034507;28;20339;-72
2021/10/15 08:35:10;;;;;;;18.17;6.43;;;;;;;11.45;91.18;100203.69;5034554;28;20042;-71
2021/10/15 08:37:38;;;;;;;12.23;6.75;;;;;;;11.46;91.05;100200.06;5033692;28;20048;-72
2021/10/15 08:40:09;;;;;;;11.90;6.38;;;;;;;11.47;91.01;100201.75;5034453;28;20049;-72
2021/10/15 08:42:37;;;;;;;11.52;6.28;;;;;;;11.59;91.07;100193.91;5036139;28;20041;-71
2021/10/15 08:45:05;;;;;;;12.82;6.32;;;;;;;11.80;89.95;100195.19;5035896;28;20056;-71
2021/10/15 08:47:32;;;;;;;18.67;6.63;;;;;;;12.04;89.68;100193.69;5036077;28;20120;-71
2021/10/15 08:50:20;;;;;;;14.88;6.78;;;;;;;12.13;89.52;100205.56;5035963;28;20045;-72
2021/10/15 08:52:48;;;;;;;15.30;6.35;;;;;;;12.18;88.90;100187.41;5035924;28;20430;-70
2021/10/15 08:55:15;;;;;;;14.52;6.68;;;;;;;12.23;89.69;100177.25;5034629;28;20049;-70
2021/10/15 08:57:50;;;;;;;14.30;7.57;;;;;;;12.27;89.31;100177.91;5035922;28;20053;-72
2021/10/15 09:00:26;;;;;;;12.27;6.30;;;;;;;12.35;89.16;100172.88;5035897;28;20346;-72
2021/10/15 09:03:22;;;;;;;15.20;7.10;;;;;;;12.12;90.24;100179.78;5035955;28;20038;-73
2021/10/15 09:05:57;;;;;;;15.40;7.28;;;;;;;12.13;90.59;100194.88;5034561;28;20415;-72
2021/10/15 09:08:27;;;;;;;13.10;6.65;;;;;;;12.18;91.05;100195.44;5034841;28;20045;-74
2021/10/15 09:10:54;;;;;;;16.10;6.95;;;;;;;12.24;90.92;100207.56;5035312;28;20346;-70
2021/10/15 09:13:21;;;;;;;14.65;7.35;;;;;;;12.35;90.71;100207.66;5034697;28;20049;-72
2021/10/15 09:15:58;;;;;;;17.75;6.57;;;;;;;12.48;90.55;100210.38;5035458;28;20386;-72
2021/10/15 09:18:32;;;;;;;14.38;7.53;;;;;;;12.48;89.74;100211.22;5034420;28;20137;-72
2021/10/15 09:21:13;;;;;;;17.80;7.03;;;;;;;12.42;90.36;100211.63;5034792;28;20324;-72
2021/10/15 09:23:47;;;;;;;13.20;6.78;;;;;;;12.40;90.68;100218.91;5035004;28;20060;-71
2021/10/15 09:26:15;;;;;;;11.85;6.53;;;;;;;12.34;91.32;100227.38;5014930;28;20386;-74
2021/10/15 09:28:44;;;;;;;15.55;7.28;;;;;;;12.24;91.56;100221.78;5022016;28;20078;-72
2021/10/15 09:31:13;;;;;;;14.35;7.25;;;;;;;12.29;91.71;100214.31;5022500;28;20057;-72
2021/10/15 09:33:56;;;;;;;12.07;7.13;;;;;;;12.24;92.26;100219.09;5026150;28;20708;-73
2021/10/15 09:36:24;;;;;;;17.50;7.20;;;;;;;12.29;92.50;100221.47;5015605;28;20045;-73
2021/10/15 09:38:51;;;;;;;20.98;7.38;;;;;;;12.38;92.40;100222.66;5015680;28;20384;-71
2021/10/15 09:41:40;;;;;;;15.32;7.00;;;;;;;12.40;92.37;100220.72;4997652;28;20096;-73
2021/10/15 09:44:33;;;;;;;11.57;7.05;;;;;;;12.46;92.68;100226.53;5018215;28;20080;-70
2021/10/15 09:47:14;;;;;;;18.65;8.27;;;;;;;12.44;93.17;100232.94;5017824;28;20057;-69
2021/10/15 09:49:53;;;;;;;;;;;;;;;12.39;93.27;100230.59;5035613;28;20398;-71
2021/10/15 09:52:38;;;;;;;;;;;;;;;12.34;93.95;100252.31;5034485;28;19921;-71
2021/10/15 09:55:15;;;;;;;17.67;7.72;;;;;;;12.29;95.35;100256.25;5035039;28;20020;-71
2021/10/15 09:57:44;;;;;;;18.83;7.90;;;;;;;12.18;97.57;100259.63;5034153;28;20045;-75
2021/10/15 10:00:14;;;;;;;16.38;8.77;;;;;;;11.87;100.00;100264.31;5034973;28;20045;-73
2021/10/15 10:02:41;;;;;;;24.83;8.95;;;;;;;11.67;100.00;100263.78;5031319;28;20099;-74
2021/10/15 10:05:12;;;;;;;20.33;10.00;;;;;;;11.49;100.00;100269.34;5032995;28;20048;-74
2021/10/15 10:07:45;;;;;;;19.55;10.57;;;;;;;11.40;100.00;100270.75;5034917;28;20053;-72
2021/10/15 10:10:15;;;;;;;21.27;10.90;;;;;;;11.26;100.00;100284.13;5017471;28;20068;-72
2021/10/15 10:12:43;;;;;;;20.38;11.48;;;;;;;11.33;100.00;100289.97;5034871;28;20060;-74
2021/10/15 10:15:13;;;;;;;25.20;11.80;;;;;;;11.12;100.00;100287.66;5034484;28;20041;-71
2021/10/15 10:17:45;;;;;;;20.85;11.90;;;;;;;11.11;100.00;100302.81;5035165;28;20375;-73
2021/10/15 10:20:16;;;;;;;21.70;12.27;;;;;;;11.11;100.00;100310.00;5034679;28;20049;-71
2021/10/15 10:23:00;;;;;;;22.42;12.98;;;;;;;11.05;100.00;100300.53;5034991;28;20042;-72
2021/10/15 10:25:27;;;;;;;22.75;12.30;;;;;;;11.09;100.00;100310.09;5034792;28;20037;-76
2021/10/15 10:27:57;;;;;;;19.35;13.43;;;;;;;11.04;100.00;100316.63;5034852;28;20053;-74
2021/10/15 10:30:42;;;;;;;30.13;15.07;;;;;;;11.09;100.00;100319.91;5034801;28;20041;-72
2021/10/15 10:33:09;;;;;;;20.70;13.77;;;;;;;11.12;100.00;100314.38;5034957;28;20083;-73
2021/10/15 10:35:36;;;;;;;18.15;11.45;;;;;;;11.11;100.00;100307.31;5034446;28;20041;-73
2021/10/15 10:38:18;;;;;;;18.10;11.73;;;;;;;11.19;100.00;100320.19;5034575;28;20042;-75
2021/10/15 10:40:59;;;;;;;17.80;11.55;;;;;;;11.19;100.00;100317.53;5034801;28;20489;-73
2021/10/15 10:43:27;;;;;;;18.85;11.27;;;;;;;11.21;100.00;100323.63;5034801;28;20049;-72
2021/10/15 10:46:09;;;;;;;17.02;10.07;;;;;;;11.17;100.00;100328.28;5033655;28;20100;-74
2021/10/15 10:48:48;;;;;;;15.90;10.52;;;;;;;11.14;100.00;100331.16;5034587;28;20103;-74
2021/10/15 10:51:18;;;;;;;14.73;9.88;;;;;;;11.24;100.00;100328.78;5033280;28;20045;-74
2021/10/15 10:53:57;;;;;;;13.95;10.27;;;;;;;11.19;100.00;100330.88;5037447;28;20450;-74
2021/10/15 10:56:39;;;;;;;18.15;10.38;;;;;;;11.15;100.00;100332.88;5029404;28;20038;-74
2021/10/15 10:59:19;;;;;;;15.13;9.77;;;;;;;11.19;100.00;100336.22;5026855;28;20103;-71
2021/10/15 11:01:54;;;;;;;14.35;10.48;;;;;;;11.22;100.00;100342.25;5031972;28;20069;-74
2021/10/15 11:04:24;;;;;;;16.45;10.50;;;;;;;11.21;100.00;100339.66;5027572;28;20050;-75
2021/10/15 11:06:59;;;;;;;17.77;10.65;;;;;;;11.23;100.00;100351.13;5029222;28;20038;-74
2021/10/15 11:09:36;;;;;;;7.88;4.30;;;;;;;11.06;100.00;100357.50;5028988;28;20096;-76
2021/10/15 11:12:03;;;;;;;4.28;2.78;;;;;;;10.92;100.00;100363.63;5027976;28;20060;-75
2021/10/15 11:14:49;;;;;;;3.50;1.65;;;;;;;10.86;100.00;100362.19;5036457;28;20042;-73
2021/10/15 11:17:19;;;;;;;3.17;1.08;;;;;;;10.83;100.00;100368.56;5034113;28;20045;-80
2021/10/15 11:19:46;;;;;;;3.13;1.55;;;;;;;10.67;100.00;100362.44;5038998;28;20049;-78
2021/10/15 11:22:19;;;;;;;5.28;1.30;;;;;;;10.72;100.00;100371.00;5040365;28;20094;-74
2021/10/15 11:24:56;;;;;;;6.00;1.50;;;;;;;10.75;100.00;100370.84;5033737;28;20057;-75
2021/10/15 11:27:23;;;;;;;4.72;1.50;;;;;;;10.87;100.00;100377.28;5032605;28;20047;-76
2021/10/15 11:29:57;;;;;;;4.45;1.20;;;;;;;11.03;100.00;100379.03;5037489;28;20038;-75
2021/10/15 11:32:46;;;;;;;4.65;1.70;;;;;;;11.21;100.00;100385.06;5016915;28;20046;-74
2021/10/15 11:35:23;;;;;;;4.40;1.30;;;;;;;11.31;100.00;100386.25;5027982;28;20394;-78
2021/10/15 11:38:00;;;;;;;7.70;1.67;;;;;;;11.33;100.00;100386.16;5017574;28;20048;-76
2021/10/15 11:40:41;;;;;;;4.28;1.40;;;;;;;11.34;100.00;100388.72;5020253;28;20059;-75
2021/10/15 11:43:16;;;;;;;4.43;1.88;;;;;;;11.38;100.00;100390.25;5037870;28;20056;-75